createdAt,value
2019-04-22T00:00:46.588Z,100203
2019-04-22T00:03:16.738Z,100198
2019-04-22T00:06:01.090Z,100203
2019-04-22T00:08:41.013Z,100190
2019-04-22T00:11:13.068Z,100186
2019-04-22T00:13:40.222Z,100189
2019-04-22T00:15:59.195Z,100184
2019-04-22T00:18:50.440Z,100184
2019-04-22T00:21:10.101Z,100170
2019-04-22T00:23:37.022Z,100170
2019-04-22T00:26:05.244Z,100171
2019-04-22T00:28:30.508Z,100173
2019-04-22T00:30:58.211Z,100169
2019-04-22T00:33:28.614Z,100171
2019-04-22T00:35:54.890Z,100166
2019-04-22T00:38:26.540Z,100169
2019-04-22T00:40:51.747Z,100170
2019-04-22T00:43:28.831Z,100173
2019-04-22T00:45:49.235Z,100162
2019-04-22T00:48:29.097Z,100159
2019-04-22T00:50:58.330Z,100155
2019-04-22T00:53:27.580Z,100154
2019-04-22T00:55:54.128Z,100149
2019-04-22T00:58:24.690Z,100146
2019-04-22T01:00:58.764Z,100151
2019-04-22T01:03:26.322Z,100149
2019-04-22T01:05:56.847Z,100141
2019-04-22T01:08:36.681Z,100139
2019-04-22T01:10:57.154Z,100137
2019-04-22T01:13:22.857Z,100138
2019-04-22T01:15:47.550Z,100140
2019-04-22T01:18:17.753Z,100132
2019-04-22T01:21:14.768Z,100134
2019-04-22T01:23:11.001Z,100134
2019-04-22T01:25:42.149Z,100130
2019-04-22T01:28:10.181Z,100132
2019-04-22T01:30:31.615Z,100128
2019-04-22T01:32:51.055Z,100125
2019-04-22T01:35:31.105Z,100135
2019-04-22T01:38:00.031Z,100129
2019-04-22T01:40:40.533Z,100124
2019-04-22T01:43:07.307Z,100121
2019-04-22T01:45:39.208Z,100123
2019-04-22T01:48:02.527Z,100118
2019-04-22T01:50:31.740Z,100123
2019-04-22T01:53:08.614Z,100119
2019-04-22T01:57:59.474Z,100114
2019-04-22T02:00:25.167Z,100112
2019-04-22T02:03:04.154Z,100110
2019-04-22T02:05:28.758Z,100102
2019-04-22T02:07:57.997Z,100105
2019-04-22T02:10:34.698Z,100107
2019-04-22T02:13:03.100Z,100105
2019-04-22T02:15:23.444Z,100104
2019-04-22T02:18:12.004Z,100103
2019-04-22T02:20:25.381Z,100094
2019-04-22T02:23:33.530Z,100099
2019-04-22T02:25:44.228Z,100091
2019-04-22T02:28:24.026Z,100090
2019-04-22T02:30:56.491Z,100087
2019-04-22T02:33:30.715Z,100087
2019-04-22T02:35:58.115Z,100080
2019-04-22T02:38:19.968Z,100075
2019-04-22T02:41:04.548Z,100069
2019-04-22T02:43:11.911Z,100070
2019-04-22T02:46:00.056Z,100066
2019-04-22T02:48:16.328Z,100065
2019-04-22T02:50:33.846Z,100060
2019-04-22T02:53:01.935Z,100057
2019-04-22T02:55:36.429Z,100054
2019-04-22T02:57:57.858Z,100054
2019-04-22T03:00:35.027Z,100051
2019-04-22T03:03:18.691Z,100052
2019-04-22T03:07:58.324Z,100044
2019-04-22T03:10:30.138Z,100044
2019-04-22T03:12:52.185Z,100036
2019-04-22T03:15:20.236Z,100031
2019-04-22T03:17:51.726Z,100027
2019-04-22T03:20:17.851Z,100029
2019-04-22T03:22:49.291Z,100028
2019-04-22T03:27:41.380Z,100028
2019-04-22T03:30:41.807Z,100029
2019-04-22T03:42:52.262Z,100018
2019-04-22T03:45:19.781Z,100016
2019-04-22T03:50:16.291Z,100018
2019-04-22T03:52:27.731Z,100018
2019-04-22T04:00:12.703Z,100017
2019-04-22T04:02:38.178Z,100002
2019-04-22T04:04:59.497Z,100010
2019-04-22T04:07:43.899Z,100000
2019-04-22T04:12:37.777Z,99998
2019-04-22T04:15:12.337Z,99997
2019-04-22T04:17:31.162Z,99988
2019-04-22T04:20:06.376Z,99996
2019-04-22T04:22:53.717Z,99992
2019-04-22T04:25:05.858Z,99989
2019-04-22T04:27:55.611Z,99991
2019-04-22T04:30:14.006Z,99987
2019-04-22T04:39:53.308Z,99981
2019-04-22T04:42:32.892Z,99981
2019-04-22T04:47:32.897Z,99977
2019-04-22T04:49:52.009Z,99972
2019-04-22T04:52:35.260Z,99977
2019-04-22T04:57:16.469Z,99972
2019-04-22T05:00:13.262Z,99968
2019-04-22T05:02:17.812Z,99965
2019-04-22T05:04:51.192Z,99966
2019-04-22T05:09:34.631Z,99968
2019-04-22T05:12:22.797Z,99971
2019-04-22T05:17:03.915Z,99972
2019-04-22T05:19:28.824Z,99969
2019-04-22T05:21:59.507Z,99971
2019-04-22T05:26:57.122Z,99964
2019-04-22T05:29:32.887Z,99956
2019-04-22T05:31:52.176Z,99955
2019-04-22T05:36:48.367Z,99958
2019-04-22T05:39:17.314Z,99965
2019-04-22T05:41:48.306Z,99956
2019-04-22T05:44:17.655Z,99962
2019-04-22T05:46:44.033Z,99966
2019-04-22T05:49:18.166Z,99961
2019-04-22T05:51:44.693Z,99970
2019-04-22T05:54:14.485Z,99958
2019-04-22T05:56:39.474Z,99965
2019-04-22T05:59:11.677Z,99961
2019-04-22T06:01:45.143Z,99960
2019-04-22T06:06:32.204Z,99966
2019-04-22T06:09:07.172Z,99959
2019-04-22T06:11:29.840Z,99961
2019-04-22T06:13:59.222Z,99958
2019-04-22T06:16:31.003Z,99952
2019-04-22T06:19:03.101Z,99958
2019-04-22T06:21:35.701Z,99946
2019-04-22T06:24:04.933Z,99953
2019-04-22T06:29:01.650Z,99958
2019-04-22T06:31:24.499Z,99957
2019-04-22T06:34:05.935Z,99950
2019-04-22T06:36:24.457Z,99943
2019-04-22T06:39:13.272Z,99948
2019-04-22T06:41:21.322Z,99947
2019-04-22T06:43:51.474Z,99940
2019-04-22T06:46:21.349Z,99943
2019-04-22T06:48:40.789Z,99940
2019-04-22T06:51:22.201Z,99936
2019-04-22T06:53:48.110Z,99936
2019-04-22T06:56:15.896Z,99942
2019-04-22T06:58:51.447Z,99937
2019-04-22T07:01:19.421Z,99934
2019-04-22T07:06:17.563Z,99925
2019-04-22T07:11:04.544Z,99930
2019-04-22T07:13:37.439Z,99924
2019-04-22T07:16:05.247Z,99920
2019-04-22T07:18:37.268Z,99922
2019-04-22T07:21:01.352Z,99916
2019-04-22T07:23:35.014Z,99913
2019-04-22T07:26:00.236Z,99914
2019-04-22T07:28:24.505Z,99917
2019-04-22T07:31:00.579Z,99907
2019-04-22T07:33:34.891Z,99908
2019-04-22T07:36:23.426Z,99909
2019-04-22T07:38:26.881Z,99901
2019-04-22T07:40:55.437Z,99909
2019-04-22T07:45:56.894Z,99904
2019-04-22T07:48:33.852Z,99896
2019-04-22T07:51:07.619Z,99894
2019-04-22T07:53:26.187Z,99881
2019-04-22T07:55:52.235Z,99881
2019-04-22T07:58:24.140Z,99877
2019-04-22T08:00:53.047Z,99873
2019-04-22T08:03:18.509Z,99870
2019-04-22T08:05:58.853Z,99863
2019-04-22T08:08:24.854Z,99862
2019-04-22T08:13:16.762Z,99861
2019-04-22T08:15:48.532Z,99870
2019-04-22T08:18:28.353Z,99860
2019-04-22T08:20:45.788Z,99855
2019-04-22T08:23:09.636Z,99846
2019-04-22T08:25:41.519Z,99850
2019-04-22T08:28:10.165Z,99855
2019-04-22T08:30:41.431Z,99844
2019-04-22T08:33:13.837Z,99853
2019-04-22T08:40:40.374Z,99836
2019-04-22T08:43:18.059Z,99832
2019-04-22T08:45:31.819Z,99830
2019-04-22T08:48:01.613Z,99826
2019-04-22T08:50:33.915Z,99819
2019-04-22T08:53:03.032Z,99823
2019-04-22T08:55:32.853Z,99812
2019-04-22T08:58:15.344Z,99808
2019-04-22T09:00:33.318Z,99805
2019-04-22T09:03:00.742Z,99793
2019-04-22T09:05:42.403Z,99798
2019-04-22T09:07:56.770Z,99788
2019-04-22T09:10:25.723Z,99788
2019-04-22T09:15:27.401Z,99788
2019-04-22T09:20:20.531Z,99777
2019-04-22T09:22:48.425Z,99774
2019-04-22T09:25:22.165Z,99770
2019-04-22T09:27:43.179Z,99766
2019-04-22T09:30:20.301Z,99769
2019-04-22T09:32:45.174Z,99756
2019-04-22T09:35:09.941Z,99759
2019-04-22T09:40:15.198Z,99758
2019-04-22T09:47:40.888Z,99740
2019-04-22T09:50:26.025Z,99733
2019-04-22T09:52:37.586Z,99728
2019-04-22T09:55:06.166Z,99723
2019-04-22T09:57:31.457Z,99719
2019-04-22T10:00:02.238Z,99723
2019-04-22T10:02:51.739Z,99705
2019-04-22T10:05:00.192Z,99693
2019-04-22T10:07:31.819Z,99695
2019-04-22T10:10:03.454Z,99694
2019-04-22T10:12:32.192Z,99690
2019-04-22T10:14:54.017Z,99694
2019-04-22T10:17:19.210Z,99683
2019-04-22T10:19:53.724Z,99687
2019-04-22T10:22:27.596Z,99701
2019-04-22T10:24:55.395Z,99680
2019-04-22T10:27:21.374Z,99682
2019-04-22T10:29:54.256Z,99678
2019-04-22T10:32:15.925Z,99674
2019-04-22T10:34:31.268Z,99650
2019-04-22T10:36:56.824Z,99659
2019-04-22T10:39:20.324Z,99651
2019-04-22T10:41:48.698Z,99648
2019-04-22T10:44:17.273Z,99646
2019-04-22T10:46:46.326Z,99645
2019-04-22T10:49:15.999Z,99637
2019-04-22T10:51:44.475Z,99630
2019-04-22T10:54:13.606Z,99636
2019-04-22T10:56:43.253Z,99628
2019-04-22T10:59:10.991Z,99622
2019-04-22T11:01:40.400Z,99611
2019-04-22T11:04:09.095Z,99613
2019-04-22T11:06:44.800Z,99604
2019-04-22T11:09:08.633Z,99601
2019-04-22T11:11:46.604Z,99601
2019-04-22T11:14:07.019Z,99605
2019-04-22T11:16:35.174Z,99599
2019-04-22T11:19:05.494Z,99601
2019-04-22T11:21:33.761Z,99599
2019-04-22T11:24:02.842Z,99592
2019-04-22T11:26:31.811Z,99594
2019-04-22T11:28:59.467Z,99587
2019-04-22T11:31:28.316Z,99594
2019-04-22T11:33:58.465Z,99588
2019-04-22T11:36:30.122Z,99586
2019-04-22T11:39:01.352Z,99576
2019-04-22T11:41:23.681Z,99572
2019-04-22T11:43:53.614Z,99564
2019-04-22T11:46:21.252Z,99563
2019-04-22T11:48:51.893Z,99557
2019-04-22T11:51:20.025Z,99560
2019-04-22T11:53:49.144Z,99554
2019-04-22T11:56:18.655Z,99556
2019-04-22T11:58:46.924Z,99550
2019-04-22T12:01:16.876Z,99548
2019-04-22T12:03:46.333Z,99543
2019-04-22T12:06:15.794Z,99540
2019-04-22T12:08:47.846Z,99541
2019-04-22T12:11:16.747Z,99532
2019-04-22T12:13:46.270Z,99532
2019-04-22T12:16:14.152Z,99527
2019-04-22T12:18:43.117Z,99525
2019-04-22T12:21:13.169Z,99520
2019-04-22T12:23:41.268Z,99516
2019-04-22T12:26:13.264Z,99511
2019-04-22T12:28:39.348Z,99514
2019-04-22T12:31:09.421Z,99503
2019-04-22T12:33:37.534Z,99508
2019-04-22T12:36:06.517Z,99506
2019-04-22T12:38:35.667Z,99494
2019-04-22T12:41:06.787Z,99487
2019-04-22T12:43:33.671Z,99484
2019-04-22T12:46:02.449Z,99482
2019-04-22T12:48:31.005Z,99479
2019-04-22T12:51:00.751Z,99471
2019-04-22T12:53:29.939Z,99465
2019-04-22T12:55:59.320Z,99464
2019-04-22T12:58:27.641Z,99458
2019-04-22T13:00:57.046Z,99449
2019-04-22T13:03:26.396Z,99449
2019-04-22T13:05:55.928Z,99441
2019-04-22T13:08:25.458Z,99438
2019-04-22T13:10:59.338Z,99435
2019-04-22T13:13:23.020Z,99434
2019-04-22T13:15:51.078Z,99428
2019-04-22T13:18:29.298Z,99432
2019-04-22T13:20:48.701Z,99422
2019-04-22T13:23:18.054Z,99424
2019-04-22T13:25:47.146Z,99416
2019-04-22T13:28:15.863Z,99401
2019-04-22T13:30:44.695Z,99395
2019-04-22T13:33:14.762Z,99388
2019-04-22T13:35:43.641Z,99388
2019-04-22T13:38:11.209Z,99388
2019-04-22T13:40:55.877Z,99391
2019-04-22T13:43:09.112Z,99386
2019-04-22T13:45:38.755Z,99376
2019-04-22T13:48:24.597Z,99377
2019-04-22T13:51:05.713Z,99375
2019-04-22T13:55:56.399Z,99369
2019-04-22T13:58:18.475Z,99361
2019-04-22T14:00:34.422Z,99367
2019-04-22T14:03:06.833Z,99356
2019-04-22T14:05:35.215Z,99358
2019-04-22T14:08:04.919Z,99352
2019-04-22T14:10:34.264Z,99360
2019-04-22T14:13:02.040Z,99349
2019-04-22T14:15:31.938Z,99356
2019-04-22T14:18:00.985Z,99341
2019-04-22T14:20:30.823Z,99340
2019-04-22T14:22:58.757Z,99342
2019-04-22T14:25:26.689Z,99336
2019-04-22T14:28:01.841Z,99331
2019-04-22T14:30:24.539Z,99328
2019-04-22T14:32:54.073Z,99330
2019-04-22T14:35:22.968Z,99316
2019-04-22T14:37:52.130Z,99323
2019-04-22T14:40:20.726Z,99316
2019-04-22T14:43:07.800Z,99313
2019-04-22T14:45:52.246Z,99309
2019-04-22T14:48:11.144Z,99312
2019-04-22T14:50:35.528Z,99298
2019-04-22T14:53:03.961Z,99307
2019-04-22T14:55:17.477Z,99289
2019-04-22T14:57:42.303Z,99283
2019-04-22T15:00:11.518Z,99290
2019-04-22T15:02:39.561Z,99281
2019-04-22T15:05:08.212Z,99278
2019-04-22T15:07:39.325Z,99278
2019-04-22T15:10:08.330Z,99271
2019-04-22T15:12:42.054Z,99273
2019-04-22T15:15:11.356Z,99281
2019-04-22T15:17:45.362Z,99268
2019-04-22T15:20:17.115Z,99267
2019-04-22T15:22:46.484Z,99268
2019-04-22T15:25:14.819Z,99259
2019-04-22T15:27:45.786Z,99260
2019-04-22T15:30:13.239Z,99255
2019-04-22T15:32:43.190Z,99255
2019-04-22T15:35:11.407Z,99256
2019-04-22T15:37:41.149Z,99250
2019-04-22T15:40:08.995Z,99249
2019-04-22T15:42:41.224Z,99238
2019-04-22T15:45:08.596Z,99238
2019-04-22T15:47:35.173Z,99242
2019-04-22T15:50:04.014Z,99240
2019-04-22T15:52:40.719Z,99228
2019-04-22T15:55:02.940Z,99231
2019-04-22T15:57:31.291Z,99234
2019-04-22T16:00:14.471Z,99227
2019-04-22T16:02:29.832Z,99216
2019-04-22T16:04:58.861Z,99222
2019-04-22T16:07:27.511Z,99221
2019-04-22T16:09:55.454Z,99217
2019-04-22T16:12:30.920Z,99210
2019-04-22T16:14:56.951Z,99220
2019-04-22T16:17:24.382Z,99211
2019-04-22T16:19:55.179Z,99214
2019-04-22T16:22:24.965Z,99210
2019-04-22T16:24:56.261Z,99208
2019-04-22T16:27:24.935Z,99205
2019-04-22T16:29:55.001Z,99210
2019-04-22T16:32:23.333Z,99197
2019-04-22T16:34:52.532Z,99205
2019-04-22T16:37:20.910Z,99189
2019-04-22T16:39:51.907Z,99192
2019-04-22T16:42:27.718Z,99191
2019-04-22T16:44:47.560Z,99186
2019-04-22T16:47:17.455Z,99184
2019-04-22T16:49:45.681Z,99186
2019-04-22T16:52:14.115Z,99188
2019-04-22T16:54:44.332Z,99185
2019-04-22T16:57:12.116Z,99187
2019-04-22T16:59:42.660Z,99179
2019-04-22T17:02:12.942Z,99179
2019-04-22T17:04:43.028Z,99187
2019-04-22T17:07:11.307Z,99178
2019-04-22T17:09:39.518Z,99171
2019-04-22T17:12:09.797Z,99174
2019-04-22T17:14:44.435Z,99174
2019-04-22T17:17:06.708Z,99172
2019-04-22T17:19:35.582Z,99173
2019-04-22T17:22:05.854Z,99172
2019-04-22T17:24:35.305Z,99176
2019-04-22T17:27:04.322Z,99175
2019-04-22T17:29:32.483Z,99168
2019-04-22T17:32:06.682Z,99166
2019-04-22T17:34:31.665Z,99171
2019-04-22T17:36:59.298Z,99168
2019-04-22T17:39:41.092Z,99170
2019-04-22T17:42:15.618Z,99166
2019-04-22T17:44:48.470Z,99168
2019-04-22T17:47:10.640Z,99170
2019-04-22T17:49:50.454Z,99169
2019-04-22T17:54:47.845Z,99174
2019-04-22T17:57:15.334Z,99176
2019-04-22T17:59:42.048Z,99169
2019-04-22T18:02:09.679Z,99165
2019-04-22T18:04:23.400Z,99163
2019-04-22T18:07:18.476Z,99173
2019-04-22T18:10:10.996Z,99164
2019-04-22T18:12:16.288Z,99161
2019-04-22T18:17:11.424Z,99161
2019-04-22T18:19:37.335Z,99166
2019-04-22T18:22:00.829Z,99170
2019-04-22T18:24:23.919Z,99162
2019-04-22T18:27:17.048Z,99168
2019-04-22T18:29:35.974Z,99168
2019-04-22T18:31:50.186Z,99167
2019-04-22T18:34:28.972Z,99167
2019-04-22T18:36:58.004Z,99158
2019-04-22T18:39:27.274Z,99169
2019-04-22T18:41:54.058Z,99163
2019-04-22T18:44:27.835Z,99167
2019-04-22T18:46:52.281Z,99169
2019-04-22T18:49:23.179Z,99182
2019-04-22T18:52:01.115Z,99156
2019-04-22T18:54:22.699Z,99163
2019-04-22T18:56:50.491Z,99164
2019-04-22T18:59:12.360Z,99160
2019-04-22T19:01:31.299Z,99157
2019-04-22T19:04:08.988Z,99158
2019-04-22T19:06:50.209Z,99159
2019-04-22T19:09:20.459Z,99152
2019-04-22T19:12:05.885Z,99157
2019-04-22T19:14:17.591Z,99160
2019-04-22T19:16:44.561Z,99152
2019-04-22T19:19:33.588Z,99161
2019-04-22T19:21:45.524Z,99157
2019-04-22T19:24:10.257Z,99153
2019-04-22T19:27:00.787Z,99162
2019-04-22T19:29:16.849Z,99157
2019-04-22T19:31:40.826Z,99159
2019-04-22T19:34:09.318Z,99153
2019-04-22T19:36:45.208Z,99156
2019-04-22T19:39:04.310Z,99151
2019-04-22T19:41:45.431Z,99151
2019-04-22T19:44:10.241Z,99151
2019-04-22T19:46:36.717Z,99150
2019-04-22T19:49:13.581Z,99146
2019-04-22T19:51:39.365Z,99139
2019-04-22T19:54:01.383Z,99140
2019-04-22T19:56:22.670Z,99138
2019-04-22T19:58:54.940Z,99134
2019-04-22T20:01:32.016Z,99132
2019-04-22T20:04:13.712Z,99131
2019-04-22T20:06:34.975Z,99132
2019-04-22T20:08:59.606Z,99130
2019-04-22T20:11:32.905Z,99136
2019-04-22T20:14:02.582Z,99134
2019-04-22T20:16:25.172Z,99139
2019-04-22T20:19:01.568Z,99131
2019-04-22T20:21:28.596Z,99138
2019-04-22T20:23:48.286Z,99133
2019-04-22T20:26:19.004Z,99140
2019-04-22T20:28:55.957Z,99136
2019-04-22T20:31:25.270Z,99131
2019-04-22T20:33:56.080Z,99123
2019-04-22T20:36:39.415Z,99115
2019-04-22T20:38:49.490Z,99127
2019-04-22T20:41:17.389Z,99124
2019-04-22T20:43:54.513Z,99122
2019-04-22T20:46:15.259Z,99116
2019-04-22T20:48:48.461Z,99125
2019-04-22T20:51:13.950Z,99119
2019-04-22T20:53:43.932Z,99109
2019-04-22T20:56:14.778Z,99117
2019-04-22T20:58:47.951Z,99101
2019-04-22T21:01:05.263Z,99100
2019-04-22T21:03:31.948Z,99108
2019-04-22T21:06:06.893Z,99102
2019-04-22T21:08:42.202Z,99103
2019-04-22T21:11:04.396Z,99102
2019-04-22T21:13:30.646Z,99093
2019-04-22T21:16:10.811Z,99102
2019-04-22T21:18:30.519Z,99098
2019-04-22T21:21:07.903Z,99087
2019-04-22T21:23:29.970Z,99086
2019-04-22T21:26:05.387Z,99097
2019-04-22T21:28:33.054Z,99095
2019-04-22T21:31:01.392Z,99084
2019-04-22T21:33:19.547Z,99093
2019-04-22T21:38:26.573Z,99087
2019-04-22T21:40:54.668Z,99080
2019-04-22T21:43:25.581Z,99074
2019-04-22T21:45:57.345Z,99078
2019-04-22T21:51:01.307Z,99079
2019-04-22T21:53:22.752Z,99080
2019-04-22T21:56:00.957Z,99079
2019-04-22T21:58:19.278Z,99073
2019-04-22T22:03:19.472Z,99081
2019-04-22T22:05:39.118Z,99077
2019-04-22T22:08:19.148Z,99076
2019-04-22T22:10:45.398Z,99079
2019-04-22T22:13:13.835Z,99075
2019-04-22T22:15:46.601Z,99088
2019-04-22T22:18:08.733Z,99081
2019-04-22T22:20:45.257Z,99081
2019-04-22T22:23:16.072Z,99072
2019-04-22T22:25:33.539Z,99072
2019-04-22T22:28:15.799Z,99064
2019-04-22T22:30:58.170Z,99061
2019-04-22T22:33:05.905Z,99070
2019-04-22T22:35:29.664Z,99067
2019-04-22T22:38:01.447Z,99069
2019-04-22T22:40:15.459Z,99058
2019-04-22T22:42:42.753Z,99073
2019-04-22T22:45:18.200Z,99066
2019-04-22T22:47:53.379Z,99066
2019-04-22T22:50:27.374Z,99060
2019-04-22T22:53:06.735Z,99047
2019-04-22T22:55:25.009Z,99050
2019-04-22T22:57:58.513Z,99055
2019-04-22T23:00:22.336Z,99052
2019-04-22T23:03:13.660Z,99038
2019-04-22T23:05:26.271Z,99038
2019-04-22T23:07:54.274Z,99042
2019-04-22T23:10:17.503Z,99040
2019-04-22T23:12:48.523Z,99034
2019-04-22T23:15:17.590Z,99029
2019-04-22T23:17:26.630Z,99024
2019-04-22T23:19:55.784Z,99028
2019-04-22T23:22:34.168Z,99034
2019-04-22T23:25:14.045Z,99032
2019-04-22T23:27:40.297Z,99034
2019-04-22T23:30:01.209Z,99025
2019-04-22T23:32:34.063Z,99017
2019-04-22T23:35:08.324Z,99016
2019-04-22T23:37:28.956Z,99024
2019-04-22T23:40:13.397Z,99016
2019-04-22T23:42:39.768Z,99009
2019-04-22T23:45:12.302Z,99008
2019-04-22T23:47:29.897Z,99018
2019-04-22T23:50:01.083Z,99012
2019-04-22T23:52:35.749Z,99002
2019-04-22T23:55:02.136Z,98999
2019-04-22T23:57:34.774Z,99005
